createdAt,value
2018-11-06T00:01:29.208Z,99.90
2018-11-06T00:04:02.769Z,99.90
2018-11-06T00:06:31.809Z,99.80
2018-11-06T00:09:00.363Z,99.70
2018-11-06T00:11:28.912Z,99.50
2018-11-06T00:13:57.425Z,99.50
2018-11-06T00:16:25.903Z,99.50
2018-11-06T00:18:54.438Z,99.30
2018-11-06T00:21:22.952Z,99.20
2018-11-06T00:23:51.563Z,99.20
2018-11-06T00:26:20.205Z,99.40
2018-11-06T00:28:48.709Z,99.40
2018-11-06T00:31:17.252Z,99.40
2018-11-06T00:33:45.748Z,99.40
2018-11-06T00:36:14.262Z,99.30
2018-11-06T00:38:42.742Z,99.50
2018-11-06T00:41:11.364Z,99.40
2018-11-06T00:43:39.918Z,99.50
2018-11-06T00:46:08.400Z,99.50
2018-11-06T00:48:36.951Z,99.40
2018-11-06T00:51:05.582Z,99.50
2018-11-06T00:53:34.033Z,99.40
2018-11-06T00:56:02.592Z,99.50
2018-11-06T00:58:31.062Z,99.70
2018-11-06T01:00:59.543Z,99.60
2018-11-06T01:03:33.451Z,99.70
2018-11-06T01:06:01.947Z,99.50
2018-11-06T01:08:30.463Z,99.40
2018-11-06T01:10:58.966Z,99.50
2018-11-06T01:13:27.452Z,99.70
2018-11-06T01:15:56.028Z,99.50
2018-11-06T01:18:24.574Z,99.50
2018-11-06T01:20:53.060Z,99.40
2018-11-06T01:23:21.830Z,99.50
2018-11-06T01:25:50.324Z,99.40
2018-11-06T01:28:18.790Z,99.50
2018-11-06T01:30:47.531Z,99.60
2018-11-06T01:33:16.015Z,99.50
2018-11-06T01:35:44.569Z,99.20
2018-11-06T01:38:13.051Z,99.20
2018-11-06T01:40:41.563Z,99.20
2018-11-06T01:43:10.051Z,99.20
2018-11-06T01:45:38.530Z,99.50
2018-11-06T01:48:07.042Z,99.50
2018-11-06T01:50:35.567Z,99.60
2018-11-06T01:53:04.115Z,99.70
2018-11-06T01:55:32.631Z,99.90
2018-11-06T01:58:01.142Z,99.90
2018-11-06T02:00:29.693Z,99.90
2018-11-06T02:02:58.219Z,99.90
2018-11-06T02:05:26.692Z,99.90
2018-11-06T02:07:55.316Z,99.90
2018-11-06T02:10:23.818Z,99.90
2018-11-06T02:12:52.318Z,99.90
2018-11-06T02:15:20.831Z,99.90
2018-11-06T02:17:49.384Z,99.90
2018-11-06T02:20:17.993Z,99.90
2018-11-06T02:22:46.942Z,99.90
2018-11-06T02:25:15.776Z,99.90
2018-11-06T02:27:44.324Z,99.90
2018-11-06T02:30:14.449Z,99.90
2018-11-06T02:32:43.914Z,99.90
2018-11-06T02:35:12.423Z,99.90
2018-11-06T02:37:41.023Z,99.90
2018-11-06T02:40:11.439Z,99.90
2018-11-06T02:42:40.175Z,99.90
2018-11-06T02:45:09.304Z,99.90
2018-11-06T02:47:37.959Z,99.90
2018-11-06T02:50:07.104Z,99.90
2018-11-06T02:52:35.617Z,99.90
2018-11-06T02:55:04.516Z,99.90
2018-11-06T02:57:33.030Z,99.90
2018-11-06T03:00:02.481Z,99.90
2018-11-06T03:02:31.466Z,99.90
2018-11-06T03:05:00.020Z,99.90
2018-11-06T03:07:28.530Z,99.90
2018-11-06T03:09:57.043Z,99.90
2018-11-06T03:12:25.534Z,99.90
2018-11-06T03:14:54.035Z,99.90
2018-11-06T03:17:22.606Z,99.90
2018-11-06T03:19:51.115Z,99.90
2018-11-06T03:22:19.795Z,99.90
2018-11-06T03:24:48.321Z,99.90
2018-11-06T03:27:16.979Z,99.90
2018-11-06T03:29:45.483Z,99.90
2018-11-06T03:32:13.997Z,99.90
2018-11-06T03:34:42.543Z,99.90
2018-11-06T03:37:11.024Z,99.90
2018-11-06T03:39:39.569Z,99.90
2018-11-06T03:42:08.135Z,99.90
2018-11-06T03:44:36.703Z,99.90
2018-11-06T03:47:05.570Z,99.90
2018-11-06T03:49:34.049Z,99.90
2018-11-06T03:52:02.635Z,99.90
2018-11-06T03:54:31.200Z,99.90
2018-11-06T03:56:59.703Z,99.90
2018-11-06T03:59:28.213Z,99.90
2018-11-06T04:01:56.744Z,99.90
2018-11-06T04:04:25.250Z,99.90
2018-11-06T04:06:53.789Z,99.90
2018-11-06T04:09:22.311Z,99.90
2018-11-06T04:11:50.841Z,99.90
2018-11-06T04:14:20.187Z,99.90
2018-11-06T04:16:48.739Z,99.90
2018-11-06T04:19:17.236Z,99.90
2018-11-06T04:21:45.725Z,99.90
2018-11-06T04:24:14.819Z,99.90
2018-11-06T04:26:43.373Z,99.90
2018-11-06T04:29:11.906Z,99.90
2018-11-06T04:31:40.785Z,99.90
2018-11-06T04:34:09.730Z,99.90
2018-11-06T04:36:38.252Z,99.90
2018-11-06T04:39:09.177Z,99.90
2018-11-06T04:41:37.750Z,99.90
2018-11-06T04:44:06.641Z,99.90
2018-11-06T04:46:35.165Z,99.90
2018-11-06T04:49:04.207Z,99.90
2018-11-06T04:51:32.681Z,99.90
2018-11-06T04:54:01.985Z,99.90
2018-11-06T04:56:31.307Z,99.90
2018-11-06T04:58:59.816Z,99.90
2018-11-06T05:01:28.328Z,99.90
2018-11-06T05:03:56.856Z,99.90
2018-11-06T05:06:25.857Z,99.90
2018-11-06T05:08:54.374Z,99.90
2018-11-06T05:11:22.977Z,99.90
2018-11-06T05:13:51.566Z,99.90
2018-11-06T05:16:20.095Z,99.90
2018-11-06T05:18:48.634Z,99.90
2018-11-06T05:21:17.174Z,99.90
2018-11-06T05:23:45.734Z,99.90
2018-11-06T05:26:14.236Z,99.90
2018-11-06T05:28:42.727Z,99.90
2018-11-06T05:31:11.307Z,99.90
2018-11-06T05:33:39.841Z,99.90
2018-11-06T05:36:08.315Z,99.90
2018-11-06T05:38:36.855Z,99.90
2018-11-06T05:41:06.669Z,99.90
2018-11-06T05:43:35.899Z,99.90
2018-11-06T05:46:04.525Z,99.90
2018-11-06T05:48:33.061Z,99.90
2018-11-06T05:51:01.636Z,99.90
2018-11-06T05:53:30.152Z,99.90
2018-11-06T05:55:58.661Z,99.90
2018-11-06T05:58:27.177Z,99.90
2018-11-06T06:00:55.790Z,99.90
2018-11-06T06:03:24.294Z,99.90
2018-11-06T06:05:52.792Z,99.90
2018-11-06T06:08:21.324Z,99.90
2018-11-06T06:10:50.904Z,99.90
2018-11-06T06:13:19.397Z,99.90
2018-11-06T06:15:47.960Z,99.90
2018-11-06T06:18:16.466Z,99.90
2018-11-06T06:20:44.938Z,99.90
2018-11-06T06:23:13.571Z,99.90
2018-11-06T06:25:42.026Z,99.90
2018-11-06T06:28:10.579Z,99.90
2018-11-06T06:30:39.080Z,99.90
2018-11-06T06:33:07.577Z,99.90
2018-11-06T06:35:36.089Z,99.90
2018-11-06T06:38:05.213Z,99.90
2018-11-06T06:40:33.720Z,99.90
2018-11-06T06:43:02.267Z,99.90
2018-11-06T06:45:30.788Z,99.90
2018-11-06T06:47:59.317Z,99.90
2018-11-06T06:50:27.801Z,99.90
2018-11-06T06:52:56.329Z,99.90
2018-11-06T06:55:24.855Z,99.90
2018-11-06T06:57:53.351Z,99.90
2018-11-06T07:00:22.984Z,99.90
2018-11-06T07:02:51.644Z,99.90
2018-11-06T07:05:22.416Z,99.90
2018-11-06T07:07:51.011Z,99.90
2018-11-06T07:10:20.890Z,99.90
2018-11-06T07:12:50.195Z,99.90
2018-11-06T07:15:20.257Z,99.90
2018-11-06T07:17:49.501Z,99.90
2018-11-06T07:20:19.493Z,99.90
2018-11-06T07:22:48.112Z,99.90
2018-11-06T07:25:16.686Z,99.90
2018-11-06T07:27:46.330Z,99.90
2018-11-06T07:30:16.538Z,99.90
2018-11-06T07:32:45.570Z,99.80
2018-11-06T07:35:15.127Z,99.60
2018-11-06T07:37:44.733Z,99.30
2018-11-06T07:40:14.420Z,99.30
2018-11-06T07:42:43.115Z,99.10
2018-11-06T07:45:17.098Z,99.20
2018-11-06T07:47:45.640Z,99.20
2018-11-06T07:50:14.657Z,99.40
2018-11-06T07:52:43.307Z,99.50
2018-11-06T07:55:13.320Z,99.50
2018-11-06T07:57:41.896Z,99.50
2018-11-06T08:00:18.294Z,99.50
2018-11-06T08:02:47.630Z,99.20
2018-11-06T08:05:16.446Z,99.10
2018-11-06T08:07:45.702Z,98.80
2018-11-06T08:10:14.309Z,98.60
2018-11-06T08:12:44.035Z,98.60
2018-11-06T08:15:13.249Z,98.20
2018-11-06T08:17:42.571Z,98.00
2018-11-06T08:20:11.123Z,97.80
2018-11-06T08:22:39.879Z,97.70
2018-11-06T08:25:10.038Z,97.60
2018-11-06T08:27:39.291Z,97.30
2018-11-06T08:30:08.456Z,97.00
2018-11-06T08:32:37.405Z,96.60
2018-11-06T08:35:07.119Z,96.40
2018-11-06T08:37:35.651Z,96.10
2018-11-06T08:40:04.303Z,96.00
2018-11-06T08:42:32.868Z,95.70
2018-11-06T08:45:01.339Z,95.60
2018-11-06T08:47:29.879Z,95.50
2018-11-06T08:49:58.419Z,95.30
2018-11-06T08:52:26.951Z,95.40
2018-11-06T08:54:55.431Z,95.10
2018-11-06T08:57:23.946Z,95.10
2018-11-06T08:59:52.455Z,94.90
2018-11-06T09:02:21.011Z,94.80
2018-11-06T09:04:49.495Z,94.60
2018-11-06T09:07:18.020Z,94.40
2018-11-06T09:09:46.534Z,94.20
2018-11-06T09:12:15.992Z,94.20
2018-11-06T09:14:44.512Z,93.80
2018-11-06T09:17:13.029Z,93.60
2018-11-06T09:19:41.544Z,93.50
2018-11-06T09:22:10.074Z,93.20
2018-11-06T09:24:38.653Z,93.00
2018-11-06T09:27:07.207Z,93.00
2018-11-06T09:29:35.758Z,92.70
2018-11-06T09:32:04.652Z,92.20
2018-11-06T09:34:33.310Z,92.20
2018-11-06T09:37:01.929Z,91.90
2018-11-06T09:39:30.783Z,91.60
2018-11-06T09:41:59.329Z,91.40
2018-11-06T09:44:27.927Z,91.20
2018-11-06T09:46:56.453Z,90.80
2018-11-06T09:49:25.064Z,91.10
2018-11-06T09:51:53.649Z,91.10
2018-11-06T09:54:22.135Z,90.60
2018-11-06T09:56:50.662Z,90.50
2018-11-06T09:59:19.239Z,90.10
2018-11-06T10:01:47.760Z,90.10
2018-11-06T10:04:16.338Z,90.20
2018-11-06T10:06:45.119Z,89.40
2018-11-06T10:09:13.510Z,89.00
2018-11-06T10:11:42.026Z,89.50
2018-11-06T10:14:10.600Z,88.70
2018-11-06T10:16:39.142Z,88.20
2018-11-06T10:19:07.674Z,88.00
2018-11-06T10:21:36.290Z,87.60
2018-11-06T10:24:05.924Z,87.80
2018-11-06T10:26:34.480Z,87.30
2018-11-06T10:29:03.070Z,87.30
2018-11-06T10:31:31.585Z,87.30
2018-11-06T10:34:00.175Z,87.00
2018-11-06T10:36:28.747Z,86.70
2018-11-06T10:38:57.313Z,87.00
2018-11-06T10:41:25.815Z,86.60
2018-11-06T10:43:54.359Z,86.00
2018-11-06T10:46:22.911Z,85.70
2018-11-06T10:48:51.577Z,85.90
2018-11-06T10:51:20.155Z,86.00
2018-11-06T10:53:48.737Z,86.40
2018-11-06T10:56:17.248Z,85.90
2018-11-06T10:58:45.777Z,85.70
2018-11-06T11:01:19.561Z,85.30
2018-11-06T11:03:53.265Z,85.30
2018-11-06T11:06:21.823Z,85.50
2018-11-06T11:08:50.345Z,85.80
2018-11-06T11:11:18.899Z,85.70
2018-11-06T11:13:47.376Z,85.90
2018-11-06T11:16:15.845Z,85.70
2018-11-06T11:18:44.367Z,85.10
2018-11-06T11:21:12.876Z,84.60
2018-11-06T11:23:41.399Z,84.80
2018-11-06T11:26:09.923Z,85.00
2018-11-06T11:28:38.537Z,85.20
2018-11-06T11:31:07.046Z,85.30
2018-11-06T11:33:35.593Z,84.70
2018-11-06T11:36:04.110Z,84.60
2018-11-06T11:38:32.678Z,84.90
2018-11-06T11:41:01.171Z,84.80
2018-11-06T11:43:29.663Z,84.90
2018-11-06T11:45:58.323Z,84.60
2018-11-06T11:48:26.805Z,84.00
2018-11-06T11:50:55.335Z,83.60
2018-11-06T11:53:23.811Z,82.80
2018-11-06T11:55:52.711Z,82.80
2018-11-06T11:58:21.279Z,82.00
2018-11-06T12:00:49.788Z,81.40
2018-11-06T12:03:18.339Z,81.40
2018-11-06T12:05:46.877Z,81.50
2018-11-06T12:08:15.439Z,81.10
2018-11-06T12:10:44.041Z,81.60
2018-11-06T12:13:12.540Z,81.60
2018-11-06T12:15:41.364Z,81.10
2018-11-06T12:18:09.924Z,80.60
2018-11-06T12:20:38.444Z,80.00
2018-11-06T12:23:06.970Z,80.00
2018-11-06T12:25:35.637Z,80.10
2018-11-06T12:28:04.030Z,79.50
2018-11-06T12:30:32.667Z,79.70
2018-11-06T12:33:01.228Z,79.50
2018-11-06T12:35:29.724Z,80.10
2018-11-06T12:37:58.219Z,80.10
2018-11-06T12:40:26.761Z,79.30
2018-11-06T12:42:55.277Z,79.40
2018-11-06T12:45:23.787Z,79.20
2018-11-06T12:47:52.455Z,79.20
2018-11-06T12:50:21.029Z,79.10
2018-11-06T12:52:49.546Z,78.30
2018-11-06T12:55:18.087Z,79.00
2018-11-06T12:57:46.579Z,78.80
2018-11-06T13:00:16.565Z,78.40
2018-11-06T13:02:45.171Z,78.10
2018-11-06T13:05:13.692Z,77.70
2018-11-06T13:07:43.097Z,77.30
2018-11-06T13:10:12.484Z,77.80
2018-11-06T13:12:41.579Z,77.60
2018-11-06T13:15:10.104Z,78.40
2018-11-06T13:17:38.712Z,78.60
2018-11-06T13:20:12.148Z,78.80
2018-11-06T13:22:41.516Z,78.70
2018-11-06T13:25:10.125Z,78.90
2018-11-06T13:27:39.599Z,79.40
2018-11-06T13:30:10.508Z,79.20
2018-11-06T13:32:39.572Z,79.30
2018-11-06T13:35:08.524Z,78.60
2018-11-06T13:37:37.106Z,78.80
2018-11-06T13:40:06.959Z,78.60
2018-11-06T13:42:35.624Z,77.80
2018-11-06T13:45:04.799Z,77.60
2018-11-06T13:47:33.007Z,77.50
2018-11-06T13:50:01.555Z,77.40
2018-11-06T13:52:30.139Z,77.60
2018-11-06T13:54:58.684Z,77.80
2018-11-06T13:57:27.215Z,78.00
2018-11-06T13:59:55.738Z,78.80
2018-11-06T14:02:24.249Z,78.20
2018-11-06T14:04:52.737Z,78.90
2018-11-06T14:07:21.405Z,78.90
2018-11-06T14:09:50.106Z,79.30
2018-11-06T14:12:18.738Z,79.40
2018-11-06T14:14:47.298Z,80.40
2018-11-06T14:17:15.784Z,79.80
2018-11-06T14:19:44.298Z,79.90
2018-11-06T14:22:12.842Z,80.00
2018-11-06T14:24:41.336Z,80.50
2018-11-06T14:27:09.978Z,80.50
2018-11-06T14:29:38.428Z,80.30
2018-11-06T14:32:06.993Z,80.20
2018-11-06T14:34:35.619Z,80.40
2018-11-06T14:37:04.199Z,80.70
2018-11-06T14:39:32.725Z,80.80
2018-11-06T14:42:01.324Z,80.90
2018-11-06T14:44:29.823Z,80.10
2018-11-06T14:46:58.382Z,80.30
2018-11-06T14:49:26.920Z,80.20
2018-11-06T14:51:55.416Z,79.80
2018-11-06T14:54:23.947Z,80.10
2018-11-06T14:56:52.469Z,80.50
2018-11-06T14:59:21.033Z,80.60
2018-11-06T15:01:49.519Z,81.10
2018-11-06T15:04:18.041Z,81.50
2018-11-06T15:06:46.720Z,81.90
2018-11-06T15:09:15.231Z,82.20
2018-11-06T15:11:43.729Z,82.20
2018-11-06T15:14:12.272Z,82.80
2018-11-06T15:16:40.852Z,83.10
2018-11-06T15:19:09.480Z,83.60
2018-11-06T15:21:37.994Z,84.20
2018-11-06T15:24:07.348Z,84.90
2018-11-06T15:26:35.980Z,85.60
2018-11-06T15:29:04.861Z,86.20
2018-11-06T15:31:33.431Z,87.30
2018-11-06T15:34:02.043Z,88.40
2018-11-06T15:36:30.861Z,89.10
2018-11-06T15:38:59.481Z,90.10
2018-11-06T15:41:28.017Z,90.40
2018-11-06T15:43:59.749Z,90.50
2018-11-06T15:46:28.257Z,91.10
2018-11-06T15:48:57.034Z,91.00
2018-11-06T15:51:25.594Z,91.20
2018-11-06T15:53:54.114Z,91.60
2018-11-06T15:56:22.694Z,91.80
2018-11-06T15:58:51.586Z,92.10
2018-11-06T16:01:20.127Z,92.50
2018-11-06T16:03:48.668Z,92.90
2018-11-06T16:06:17.218Z,93.10
2018-11-06T16:08:45.692Z,93.20
2018-11-06T16:11:14.242Z,93.40
2018-11-06T16:13:42.853Z,93.50
2018-11-06T16:16:11.430Z,93.40
2018-11-06T16:18:39.938Z,93.50
2018-11-06T16:21:08.597Z,93.60
2018-11-06T16:23:37.194Z,93.60
2018-11-06T16:26:05.807Z,93.60
2018-11-06T16:28:34.523Z,93.50
2018-11-06T16:31:03.047Z,93.60
2018-11-06T16:33:31.513Z,93.50
2018-11-06T16:36:00.047Z,93.40
2018-11-06T16:38:28.628Z,93.50
2018-11-06T16:40:57.174Z,93.50
2018-11-06T16:43:25.771Z,93.70
2018-11-06T16:45:54.279Z,93.90
2018-11-06T16:48:22.948Z,94.00
2018-11-06T16:50:52.594Z,93.90
2018-11-06T16:53:21.330Z,94.00
2018-11-06T16:55:49.854Z,94.20
2018-11-06T16:58:18.469Z,93.80
2018-11-06T17:00:47.195Z,93.80
2018-11-06T17:03:15.644Z,93.70
2018-11-06T17:05:44.308Z,93.80
2018-11-06T17:08:12.922Z,93.90
2018-11-06T17:10:41.618Z,93.90
2018-11-06T17:13:10.206Z,93.90
2018-11-06T17:15:38.869Z,94.00
2018-11-06T17:18:07.763Z,94.00
2018-11-06T17:20:36.411Z,94.10
2018-11-06T17:23:05.345Z,94.10
2018-11-06T17:25:33.954Z,94.20
2018-11-06T17:28:02.556Z,94.30
2018-11-06T17:30:31.566Z,94.50
2018-11-06T17:33:00.157Z,94.30
2018-11-06T17:35:28.827Z,94.10
2018-11-06T17:37:57.363Z,94.20
2018-11-06T17:40:25.937Z,94.20
2018-11-06T17:42:54.506Z,94.40
2018-11-06T17:45:24.224Z,94.70
2018-11-06T17:47:52.828Z,94.80
2018-11-06T17:50:21.449Z,95.10
2018-11-06T17:52:50.090Z,95.40
2018-11-06T17:55:20.036Z,95.50
2018-11-06T17:57:48.648Z,95.70
2018-11-06T18:00:19.415Z,95.90
2018-11-06T18:02:48.109Z,96.10
2018-11-06T18:05:17.861Z,96.10
2018-11-06T18:07:46.489Z,96.10
2018-11-06T18:10:16.646Z,96.20
2018-11-06T18:12:45.625Z,96.20
2018-11-06T18:15:14.328Z,96.10
2018-11-06T18:17:43.303Z,95.90
2018-11-06T18:20:13.167Z,95.60
2018-11-06T18:22:42.667Z,95.70
2018-11-06T18:25:12.434Z,95.70
2018-11-06T18:27:41.427Z,95.80
2018-11-06T18:30:13.437Z,95.90
2018-11-06T18:32:42.174Z,95.60
2018-11-06T18:35:12.176Z,95.50
2018-11-06T18:37:40.777Z,95.50
2018-11-06T18:40:12.301Z,95.60
2018-11-06T18:42:41.469Z,95.60
2018-11-06T18:45:10.117Z,95.30
2018-11-06T18:47:38.876Z,95.50
2018-11-06T18:50:09.453Z,95.60
2018-11-06T18:52:38.204Z,95.70
2018-11-06T18:55:07.463Z,95.90
2018-11-06T18:57:36.300Z,95.80
2018-11-06T19:00:05.871Z,96.00
2018-11-06T19:02:34.543Z,96.10
2018-11-06T19:05:03.222Z,96.20
2018-11-06T19:07:32.345Z,96.30
2018-11-06T19:10:01.346Z,96.30
2018-11-06T19:12:30.627Z,96.40
2018-11-06T19:14:59.415Z,96.50
2018-11-06T19:17:28.454Z,96.60
2018-11-06T19:19:57.140Z,96.70
2018-11-06T19:22:25.868Z,96.60
2018-11-06T19:24:54.572Z,97.30
2018-11-06T19:27:23.173Z,97.70
2018-11-06T19:29:51.823Z,97.40
2018-11-06T19:32:20.572Z,97.40
2018-11-06T19:34:49.354Z,97.40
2018-11-06T19:37:18.032Z,97.40
2018-11-06T19:39:46.748Z,97.50
2018-11-06T19:42:15.525Z,97.30
2018-11-06T19:44:44.148Z,97.20
2018-11-06T19:47:12.883Z,97.20
2018-11-06T19:49:41.775Z,97.20
2018-11-06T19:52:10.455Z,97.00
2018-11-06T19:54:39.158Z,97.00
2018-11-06T19:57:08.021Z,97.00
2018-11-06T19:59:36.712Z,96.90
2018-11-06T20:02:06.183Z,96.80
2018-11-06T20:04:35.000Z,96.80
2018-11-06T20:07:04.042Z,96.90
2018-11-06T20:09:32.681Z,96.90
2018-11-06T20:12:01.427Z,97.00
2018-11-06T20:14:29.953Z,97.10
2018-11-06T20:16:58.860Z,97.30
2018-11-06T20:19:27.702Z,97.70
2018-11-06T20:21:56.794Z,97.40
2018-11-06T20:24:25.533Z,97.50
2018-11-06T20:26:54.283Z,97.60
2018-11-06T20:29:23.077Z,97.70
2018-11-06T20:31:51.729Z,97.70
2018-11-06T20:34:20.417Z,97.80
2018-11-06T20:36:49.114Z,97.90
2018-11-06T20:39:17.879Z,97.70
2018-11-06T20:41:46.625Z,97.40
2018-11-06T20:44:15.297Z,97.20
2018-11-06T20:46:43.954Z,97.20
2018-11-06T20:49:12.646Z,97.20
2018-11-06T20:51:41.286Z,97.30
2018-11-06T20:54:10.050Z,97.30
2018-11-06T20:56:38.718Z,97.50
2018-11-06T20:59:07.909Z,97.50
2018-11-06T21:01:36.684Z,97.50
2018-11-06T21:04:05.780Z,97.40
2018-11-06T21:06:34.711Z,97.50
2018-11-06T21:09:04.537Z,97.40
2018-11-06T21:11:33.193Z,97.50
2018-11-06T21:14:01.932Z,97.60
2018-11-06T21:16:30.749Z,97.80
2018-11-06T21:18:59.468Z,97.80
2018-11-06T21:21:28.228Z,98.00
2018-11-06T21:23:56.975Z,98.20
2018-11-06T21:26:25.707Z,98.30
2018-11-06T21:28:54.268Z,98.40
2018-11-06T21:31:23.757Z,98.50
2018-11-06T21:33:52.399Z,98.60
2018-11-06T21:36:20.938Z,98.70
2018-11-06T21:38:49.622Z,98.70
2018-11-06T21:41:18.160Z,98.90
2018-11-06T21:43:46.758Z,98.80
2018-11-06T21:46:15.345Z,98.80
2018-11-06T21:48:43.945Z,98.80
2018-11-06T21:51:12.711Z,98.90
2018-11-06T21:53:41.617Z,98.90
2018-11-06T21:56:10.428Z,99.00
2018-11-06T21:58:39.030Z,99.10
2018-11-06T22:01:07.626Z,99.20
2018-11-06T22:03:36.115Z,99.20
2018-11-06T22:06:04.726Z,99.20
2018-11-06T22:08:33.701Z,99.20
2018-11-06T22:11:02.304Z,99.30
2018-11-06T22:13:31.620Z,99.30
2018-11-06T22:16:00.788Z,99.30
2018-11-06T22:18:29.450Z,99.30
2018-11-06T22:20:57.964Z,99.40
2018-11-06T22:23:26.546Z,99.50
2018-11-06T22:25:55.061Z,99.40
2018-11-06T22:28:23.615Z,99.40
2018-11-06T22:30:52.171Z,99.50
2018-11-06T22:33:20.708Z,99.40
2018-11-06T22:35:49.249Z,99.50
2018-11-06T22:38:17.771Z,99.60
2018-11-06T22:40:46.282Z,99.60
2018-11-06T22:43:14.795Z,99.70
2018-11-06T22:45:43.283Z,99.70
2018-11-06T22:48:11.763Z,99.80
2018-11-06T22:50:40.279Z,99.80
2018-11-06T22:53:08.832Z,99.60
2018-11-06T22:55:37.364Z,99.50
2018-11-06T22:58:06.020Z,99.60
2018-11-06T23:00:39.884Z,99.60
2018-11-06T23:03:11.147Z,99.60
2018-11-06T23:05:39.933Z,99.70
2018-11-06T23:08:13.712Z,99.80
2018-11-06T23:10:42.263Z,99.70
2018-11-06T23:13:11.072Z,99.70
2018-11-06T23:15:39.717Z,99.50
2018-11-06T23:18:08.274Z,99.30
2018-11-06T23:20:36.796Z,99.30
2018-11-06T23:23:05.564Z,99.50
2018-11-06T23:25:34.040Z,99.50
2018-11-06T23:28:02.548Z,99.60
2018-11-06T23:30:31.160Z,99.50
2018-11-06T23:32:59.657Z,99.50
2018-11-06T23:35:28.189Z,99.60
2018-11-06T23:37:56.795Z,99.50
2018-11-06T23:40:25.284Z,99.40
2018-11-06T23:42:53.871Z,99.40
2018-11-06T23:45:22.404Z,99.50
2018-11-06T23:47:50.899Z,99.70
2018-11-06T23:50:19.504Z,99.70
2018-11-06T23:52:48.011Z,99.80
2018-11-06T23:55:16.515Z,99.80
2018-11-06T23:57:45.040Z,99.90
